sensor_id;sensor_type;location;lat;lon;timestamp;P1;durP1;ratioP1;P2;durP2;ratioP2
58874;SDS011;44652;49.040;12.126;2022-09-30T05:01:58;9.18;;;6.05;;
58874;SDS011;44652;49.040;12.126;2022-09-30T05:04:25;7.00;;;5.45;;
58874;SDS011;44652;49.040;12.126;2022-09-30T05:06:52;9.40;;;7.18;;
58874;SDS011;44652;49.040;12.126;2022-09-30T05:09:19;14.13;;;7.63;;
58874;SDS011;44652;49.040;12.126;2022-09-30T05:11:46;12.05;;;7.55;;
58874;SDS011;44652;49.040;12.126;2022-09-30T05:14:12;11.27;;;7.82;;
58874;SDS011;44652;49.040;12.126;2022-09-30T05:16:39;11.93;;;8.55;;
58874;SDS011;44652;49.040;12.126;2022-09-30T05:19:06;12.30;;;7.70;;
58874;SDS011;44652;49.040;12.126;2022-09-30T05:21:32;9.90;;;8.10;;
58874;SDS011;44652;49.040;12.126;2022-09-30T05:23:59;12.85;;;8.48;;
58874;SDS011;44652;49.040;12.126;2022-09-30T05:26:26;13.77;;;9.30;;
58874;SDS011;44652;49.040;12.126;2022-09-30T05:28:53;12.30;;;8.43;;
58874;SDS011;44652;49.040;12.126;2022-09-30T05:31:20;13.45;;;8.98;;
58874;SDS011;44652;49.040;12.126;2022-09-30T05:33:47;15.48;;;9.30;;
58874;SDS011;44652;49.040;12.126;2022-09-30T05:36:13;14.60;;;9.23;;
58874;SDS011;44652;49.040;12.126;2022-09-30T05:38:41;25.63;;;10.20;;
58874;SDS011;44652;49.040;12.126;2022-09-30T05:41:09;14.88;;;9.70;;
58874;SDS011;44652;49.040;12.126;2022-09-30T05:43:38;24.30;;;9.77;;
58874;SDS011;44652;49.040;12.126;2022-09-30T05:46:05;22.48;;;9.88;;
58874;SDS011;44652;49.040;12.126;2022-09-30T05:48:32;12.07;;;9.35;;
58874;SDS011;44652;49.040;12.126;2022-09-30T05:50:59;10.75;;;8.35;;
58874;SDS011;44652;49.040;12.126;2022-09-30T05:53:27;17.52;;;9.65;;
58874;SDS011;44652;49.040;12.126;2022-09-30T05:55:55;22.42;;;11.32;;
58874;SDS011;44652;49.040;12.126;2022-09-30T05:58:21;13.70;;;9.95;;
58874;SDS011;44652;49.040;12.126;2022-09-30T06:00:48;17.15;;;10.57;;
58874;SDS011;44652;49.040;12.126;2022-09-30T06:03:16;23.17;;;10.48;;
58874;SDS011;44652;49.040;12.126;2022-09-30T06:05:43;13.47;;;10.93;;
58874;SDS011;44652;49.040;12.126;2022-09-30T06:08:11;27.88;;;10.93;;
58874;SDS011;44652;49.040;12.126;2022-09-30T06:10:39;15.10;;;9.90;;
58874;SDS011;44652;49.040;12.126;2022-09-30T06:13:07;44.35;;;10.63;;
58874;SDS011;44652;49.040;12.126;2022-09-30T06:15:34;21.13;;;10.65;;
58874;SDS011;44652;49.040;12.126;2022-09-30T06:18:06;21.67;;;10.77;;
58874;SDS011;44652;49.040;12.126;2022-09-30T06:20:33;12.00;;;9.20;;
58874;SDS011;44652;49.040;12.126;2022-09-30T06:23:01;18.25;;;10.38;;
58874;SDS011;44652;49.040;12.126;2022-09-30T06:25:29;20.83;;;10.77;;
58874;SDS011;44652;49.040;12.126;2022-09-30T06:27:56;27.05;;;10.77;;
58874;SDS011;44652;49.040;12.126;2022-09-30T06:30:23;12.73;;;9.50;;
58874;SDS011;44652;49.040;12.126;2022-09-30T06:32:50;24.92;;;10.20;;
58874;SDS011;44652;49.040;12.126;2022-09-30T06:35:19;41.00;;;10.63;;
58874;SDS011;44652;49.040;12.126;2022-09-30T06:37:49;13.77;;;10.73;;
58874;SDS011;44652;49.040;12.126;2022-09-30T06:40:16;21.95;;;11.00;;
58874;SDS011;44652;49.040;12.126;2022-09-30T06:42:43;17.98;;;11.10;;
58874;SDS011;44652;49.040;12.126;2022-09-30T06:45:10;23.00;;;11.57;;
58874;SDS011;44652;49.040;12.126;2022-09-30T06:47:55;16.80;;;11.88;;
58874;SDS011;44652;49.040;12.126;2022-09-30T06:50:26;20.63;;;12.43;;
58874;SDS011;44652;49.040;12.126;2022-09-30T06:52:57;38.30;;;14.13;;
58874;SDS011;44652;49.040;12.126;2022-09-30T06:55:25;20.65;;;13.77;;
58874;SDS011;44652;49.040;12.126;2022-09-30T06:57:53;19.60;;;12.23;;
58874;SDS011;44652;49.040;12.126;2022-09-30T07:00:22;17.23;;;11.82;;
58874;SDS011;44652;49.040;12.126;2022-09-30T07:02:49;18.60;;;12.60;;
58874;SDS011;44652;49.040;12.126;2022-09-30T07:05:16;17.83;;;13.70;;
58874;SDS011;44652;49.040;12.126;2022-09-30T07:07:42;16.92;;;12.93;;
58874;SDS011;44652;49.040;12.126;2022-09-30T07:10:09;27.85;;;14.55;;
58874;SDS011;44652;49.040;12.126;2022-09-30T07:12:36;19.60;;;14.18;;
58874;SDS011;44652;49.040;12.126;2022-09-30T07:15:03;24.08;;;13.60;;
58874;SDS011;44652;49.040;12.126;2022-09-30T07:17:30;25.05;;;13.30;;
58874;SDS011;44652;49.040;12.126;2022-09-30T07:19:57;26.23;;;13.55;;
58874;SDS011;44652;49.040;12.126;2022-09-30T07:22:24;21.85;;;13.65;;
58874;SDS011;44652;49.040;12.126;2022-09-30T07:24:58;15.88;;;12.55;;
58874;SDS011;44652;49.040;12.126;2022-09-30T07:27:26;15.15;;;12.02;;
58874;SDS011;44652;49.040;12.126;2022-09-30T07:29:53;17.58;;;13.48;;
58874;SDS011;44652;49.040;12.126;2022-09-30T07:32:36;19.05;;;13.13;;
58874;SDS011;44652;49.040;12.126;2022-09-30T07:35:04;33.85;;;13.98;;
58874;SDS011;44652;49.040;12.126;2022-09-30T07:37:31;21.43;;;13.23;;
58874;SDS011;44652;49.040;12.126;2022-09-30T07:40:05;16.95;;;12.95;;
58874;SDS011;44652;49.040;12.126;2022-09-30T07:42:35;17.13;;;13.57;;
58874;SDS011;44652;49.040;12.126;2022-09-30T07:45:03;24.52;;;15.23;;
58874;SDS011;44652;49.040;12.126;2022-09-30T07:47:30;17.65;;;13.27;;
58874;SDS011;44652;49.040;12.126;2022-09-30T07:49:56;14.95;;;11.98;;
58874;SDS011;44652;49.040;12.126;2022-09-30T07:52:23;16.45;;;12.38;;
58874;SDS011;44652;49.040;12.126;2022-09-30T07:54:50;12.43;;;11.07;;
58874;SDS011;44652;49.040;12.126;2022-09-30T07:57:16;21.08;;;12.35;;
58874;SDS011;44652;49.040;12.126;2022-09-30T07:59:43;16.15;;;12.43;;
58874;SDS011;44652;49.040;12.126;2022-09-30T08:02:12;16.17;;;11.85;;
58874;SDS011;44652;49.040;12.126;2022-09-30T08:04:43;16.40;;;12.30;;
58874;SDS011;44652;49.040;12.126;2022-09-30T08:07:11;16.08;;;11.40;;
58874;SDS011;44652;49.040;12.126;2022-09-30T08:09:39;13.20;;;11.27;;
58874;SDS011;44652;49.040;12.126;2022-09-30T08:12:06;14.60;;;11.68;;
58874;SDS011;44652;49.040;12.126;2022-09-30T08:14:33;12.65;;;10.93;;
58874;SDS011;44652;49.040;12.126;2022-09-30T08:17:00;12.57;;;11.23;;
58874;SDS011;44652;49.040;12.126;2022-09-30T08:19:28;14.02;;;11.02;;
58874;SDS011;44652;49.040;12.126;2022-09-30T08:21:56;14.82;;;11.05;;
58874;SDS011;44652;49.040;12.126;2022-09-30T08:24:23;13.67;;;10.80;;
58874;SDS011;44652;49.040;12.126;2022-09-30T08:29:18;14.55;;;10.55;;
58874;SDS011;44652;49.040;12.126;2022-09-30T08:32:05;11.48;;;9.68;;
58874;SDS011;44652;49.040;12.126;2022-09-30T08:34:32;14.13;;;10.50;;
58874;SDS011;44652;49.040;12.126;2022-09-30T08:37:01;13.30;;;10.27;;
58874;SDS011;44652;49.040;12.126;2022-09-30T08:39:34;11.60;;;10.10;;
58874;SDS011;44652;49.040;12.126;2022-09-30T08:45:16;11.15;;;9.00;;
58874;SDS011;44652;49.040;12.126;2022-09-30T08:50:57;9.80;;;8.60;;
58874;SDS011;44652;49.040;12.126;2022-09-30T08:53:42;12.60;;;9.45;;
58874;SDS011;44652;49.040;12.126;2022-09-30T08:56:20;15.70;;;8.52;;
58874;SDS011;44652;49.040;12.126;2022-09-30T08:58:50;9.20;;;7.87;;
58874;SDS011;44652;49.040;12.126;2022-09-30T09:01:28;12.35;;;8.45;;
58874;SDS011;44652;49.040;12.126;2022-09-30T09:04:02;11.05;;;9.25;;
58874;SDS011;44652;49.040;12.126;2022-09-30T09:15:33;11.73;;;9.60;;
58874;SDS011;44652;49.040;12.126;2022-09-30T09:20:54;12.48;;;9.40;;
58874;SDS011;44652;49.040;12.126;2022-09-30T09:23:23;14.77;;;9.27;;
58874;SDS011;44652;49.040;12.126;2022-09-30T09:25:51;14.52;;;9.23;;
58874;SDS011;44652;49.040;12.126;2022-09-30T09:28:35;11.82;;;8.57;;
58874;SDS011;44652;49.040;12.126;2022-09-30T09:31:07;14.98;;;9.50;;
58874;SDS011;44652;49.040;12.126;2022-09-30T09:33:39;11.38;;;8.30;;
58874;SDS011;44652;49.040;12.126;2022-09-30T09:39:06;12.02;;;8.82;;
58874;SDS011;44652;49.040;12.126;2022-09-30T09:41:51;12.27;;;8.45;;
58874;SDS011;44652;49.040;12.126;2022-09-30T09:47:19;13.35;;;8.50;;
58874;SDS011;44652;49.040;12.126;2022-09-30T09:49:51;10.00;;;7.95;;
58874;SDS011;44652;49.040;12.126;2022-09-30T09:54:59;9.98;;;7.65;;
58874;SDS011;44652;49.040;12.126;2022-09-30T09:57:26;10.95;;;8.48;;
58874;SDS011;44652;49.040;12.126;2022-09-30T10:03:10;10.52;;;8.32;;
58874;SDS011;44652;49.040;12.126;2022-09-30T10:05:37;8.52;;;6.72;;
58874;SDS011;44652;49.040;12.126;2022-09-30T10:08:09;8.30;;;7.30;;
58874;SDS011;44652;49.040;12.126;2022-09-30T10:13:21;8.18;;;6.70;;
58874;SDS011;44652;49.040;12.126;2022-09-30T10:15:53;9.00;;;6.13;;
58874;SDS011;44652;49.040;12.126;2022-09-30T10:18:30;7.35;;;5.60;;
58874;SDS011;44652;49.040;12.126;2022-09-30T10:21:18;7.60;;;6.00;;
58874;SDS011;44652;49.040;12.126;2022-09-30T10:23:49;10.23;;;6.32;;
58874;SDS011;44652;49.040;12.126;2022-09-30T10:26:17;10.40;;;6.07;;
58874;SDS011;44652;49.040;12.126;2022-09-30T10:28:54;7.60;;;5.53;;
58874;SDS011;44652;49.040;12.126;2022-09-30T10:31:40;6.65;;;4.05;;
58874;SDS011;44652;49.040;12.126;2022-09-30T10:36:40;7.22;;;4.63;;
58874;SDS011;44652;49.040;12.126;2022-09-30T10:42:02;6.10;;;4.70;;
58874;SDS011;44652;49.040;12.126;2022-09-30T10:44:29;6.70;;;4.55;;
58874;SDS011;44652;49.040;12.126;2022-09-30T10:47:00;6.75;;;4.38;;
58874;SDS011;44652;49.040;12.126;2022-09-30T10:52:30;5.38;;;3.67;;
58874;SDS011;44652;49.040;12.126;2022-09-30T10:55:04;5.10;;;3.20;;
58874;SDS011;44652;49.040;12.126;2022-09-30T10:57:40;5.53;;;3.00;;
58874;SDS011;44652;49.040;12.126;2022-09-30T11:02:44;6.28;;;3.47;;
58874;SDS011;44652;49.040;12.126;2022-09-30T11:11:08;4.20;;;3.03;;
58874;SDS011;44652;49.040;12.126;2022-09-30T11:13:56;4.05;;;2.88;;
58874;SDS011;44652;49.040;12.126;2022-09-30T11:16:39;4.43;;;3.15;;
58874;SDS011;44652;49.040;12.126;2022-09-30T11:19:35;3.88;;;2.60;;
58874;SDS011;44652;49.040;12.126;2022-09-30T11:24:59;5.63;;;2.97;;
58874;SDS011;44652;49.040;12.126;2022-09-30T11:30:31;4.25;;;2.65;;
58874;SDS011;44652;49.040;12.126;2022-09-30T11:38:17;2.97;;;2.15;;
58874;SDS011;44652;49.040;12.126;2022-09-30T11:41:13;4.18;;;1.90;;
58874;SDS011;44652;49.040;12.126;2022-09-30T11:44:00;3.13;;;1.95;;
58874;SDS011;44652;49.040;12.126;2022-09-30T11:57:13;3.15;;;1.90;;
58874;SDS011;44652;49.040;12.126;2022-09-30T11:59:50;4.07;;;1.80;;
58874;SDS011;44652;49.040;12.126;2022-09-30T12:02:29;3.83;;;1.75;;
58874;SDS011;44652;49.040;12.126;2022-09-30T12:05:16;4.60;;;1.70;;
58874;SDS011;44652;49.040;12.126;2022-09-30T12:10:58;3.85;;;1.90;;
58874;SDS011;44652;49.040;12.126;2022-09-30T12:13:30;4.13;;;2.20;;
58874;SDS011;44652;49.040;12.126;2022-09-30T12:16:02;4.57;;;2.35;;
58874;SDS011;44652;49.040;12.126;2022-09-30T12:18:32;5.38;;;2.10;;
58874;SDS011;44652;49.040;12.126;2022-09-30T12:21:15;4.28;;;2.13;;
58874;SDS011;44652;49.040;12.126;2022-09-30T12:23:55;4.88;;;2.03;;
58874;SDS011;44652;49.040;12.126;2022-09-30T12:26:27;5.13;;;1.77;;
58874;SDS011;44652;49.040;12.126;2022-09-30T12:29:04;3.85;;;1.73;;
58874;SDS011;44652;49.040;12.126;2022-09-30T12:45:57;3.45;;;1.63;;
58874;SDS011;44652;49.040;12.126;2022-09-30T12:48:35;3.28;;;1.63;;
58874;SDS011;44652;49.040;12.126;2022-09-30T12:51:25;4.32;;;1.83;;
58874;SDS011;44652;49.040;12.126;2022-09-30T12:54:15;3.50;;;1.83;;
58874;SDS011;44652;49.040;12.126;2022-09-30T12:56:51;3.60;;;1.70;;
58874;SDS011;44652;49.040;12.126;2022-09-30T12:59:28;5.05;;;2.00;;
58874;SDS011;44652;49.040;12.126;2022-09-30T13:01:58;2.90;;;1.48;;
58874;SDS011;44652;49.040;12.126;2022-09-30T13:04:35;2.80;;;1.52;;
58874;SDS011;44652;49.040;12.126;2022-09-30T13:07:05;3.25;;;1.70;;
58874;SDS011;44652;49.040;12.126;2022-09-30T13:09:33;3.85;;;1.42;;
58874;SDS011;44652;49.040;12.126;2022-09-30T13:17:21;4.75;;;1.60;;
58874;SDS011;44652;49.040;12.126;2022-09-30T13:19:51;4.13;;;1.80;;
58874;SDS011;44652;49.040;12.126;2022-09-30T13:41:01;4.38;;;1.30;;
58874;SDS011;44652;49.040;12.126;2022-09-30T13:43:46;2.00;;;1.27;;
58874;SDS011;44652;49.040;12.126;2022-09-30T13:46:27;4.20;;;1.40;;
58874;SDS011;44652;49.040;12.126;2022-09-30T13:48:57;1.95;;;1.00;;
58874;SDS011;44652;49.040;12.126;2022-09-30T13:51:30;2.10;;;1.10;;
58874;SDS011;44652;49.040;12.126;2022-09-30T13:54:05;3.28;;;1.20;;
58874;SDS011;44652;49.040;12.126;2022-09-30T13:56:37;3.15;;;1.25;;
58874;SDS011;44652;49.040;12.126;2022-09-30T14:21:51;2.00;;;1.00;;
58874;SDS011;44652;49.040;12.126;2022-09-30T14:27:07;2.03;;;0.95;;
58874;SDS011;44652;49.040;12.126;2022-09-30T14:32:31;1.55;;;0.90;;
58874;SDS011;44652;49.040;12.126;2022-09-30T14:35:19;1.95;;;1.10;;
58874;SDS011;44652;49.040;12.126;2022-09-30T14:37:54;2.75;;;1.08;;
58874;SDS011;44652;49.040;12.126;2022-09-30T14:40:26;1.48;;;0.98;;
58874;SDS011;44652;49.040;12.126;2022-09-30T14:42:58;2.88;;;1.08;;
58874;SDS011;44652;49.040;12.126;2022-09-30T14:45:30;2.53;;;1.10;;
58874;SDS011;44652;49.040;12.126;2022-09-30T14:48:06;2.83;;;1.17;;
58874;SDS011;44652;49.040;12.126;2022-09-30T14:50:40;1.70;;;0.98;;
58874;SDS011;44652;49.040;12.126;2022-09-30T14:53:22;3.58;;;1.13;;
58874;SDS011;44652;49.040;12.126;2022-09-30T14:55:50;2.53;;;1.15;;
58874;SDS011;44652;49.040;12.126;2022-09-30T14:58:25;3.38;;;1.08;;
58874;SDS011;44652;49.040;12.126;2022-09-30T15:00:59;3.17;;;1.35;;
58874;SDS011;44652;49.040;12.126;2022-09-30T15:03:31;2.92;;;1.40;;
58874;SDS011;44652;49.040;12.126;2022-09-30T15:06:02;3.05;;;1.48;;
58874;SDS011;44652;49.040;12.126;2022-09-30T15:08:30;4.18;;;1.70;;
58874;SDS011;44652;49.040;12.126;2022-09-30T15:10:57;3.03;;;1.67;;
58874;SDS011;44652;49.040;12.126;2022-09-30T15:13:25;3.67;;;1.60;;
58874;SDS011;44652;49.040;12.126;2022-09-30T15:15:54;2.88;;;1.70;;
58874;SDS011;44652;49.040;12.126;2022-09-30T15:18:25;3.03;;;1.50;;
58874;SDS011;44652;49.040;12.126;2022-09-30T15:20:57;4.90;;;2.63;;
58874;SDS011;44652;49.040;12.126;2022-09-30T15:23:28;4.22;;;1.70;;
58874;SDS011;44652;49.040;12.126;2022-09-30T15:25:57;8.15;;;2.03;;
58874;SDS011;44652;49.040;12.126;2022-09-30T15:28:24;5.78;;;1.80;;
58874;SDS011;44652;49.040;12.126;2022-09-30T15:30:51;4.75;;;2.40;;
58874;SDS011;44652;49.040;12.126;2022-09-30T15:33:22;4.25;;;2.40;;
58874;SDS011;44652;49.040;12.126;2022-09-30T15:35:59;4.97;;;2.30;;
58874;SDS011;44652;49.040;12.126;2022-09-30T15:38:28;4.63;;;2.75;;
58874;SDS011;44652;49.040;12.126;2022-09-30T15:40:58;4.95;;;3.20;;
58874;SDS011;44652;49.040;12.126;2022-09-30T15:43:30;5.40;;;3.25;;
58874;SDS011;44652;49.040;12.126;2022-09-30T15:48:52;5.10;;;2.53;;
58874;SDS011;44652;49.040;12.126;2022-09-30T15:53:56;3.20;;;1.92;;
58874;SDS011;44652;49.040;12.126;2022-09-30T15:56:30;4.05;;;1.90;;
58874;SDS011;44652;49.040;12.126;2022-09-30T16:01:32;5.18;;;2.33;;
58874;SDS011;44652;49.040;12.126;2022-09-30T16:04:02;5.10;;;2.47;;
58874;SDS011;44652;49.040;12.126;2022-09-30T16:09:19;4.40;;;2.83;;
58874;SDS011;44652;49.040;12.126;2022-09-30T16:11:58;5.93;;;2.40;;
58874;SDS011;44652;49.040;12.126;2022-09-30T16:14:30;6.65;;;2.50;;
58874;SDS011;44652;49.040;12.126;2022-09-30T16:17:00;4.93;;;2.10;;
58874;SDS011;44652;49.040;12.126;2022-09-30T16:19:29;3.72;;;1.90;;
58874;SDS011;44652;49.040;12.126;2022-09-30T16:21:56;3.97;;;1.80;;
58874;SDS011;44652;49.040;12.126;2022-09-30T16:26:50;5.07;;;2.33;;
58874;SDS011;44652;49.040;12.126;2022-09-30T16:29:18;6.57;;;3.08;;
58874;SDS011;44652;49.040;12.126;2022-09-30T16:31:47;4.43;;;2.33;;
58874;SDS011;44652;49.040;12.126;2022-09-30T16:34:22;4.95;;;1.98;;
58874;SDS011;44652;49.040;12.126;2022-09-30T16:36:49;3.85;;;2.20;;
58874;SDS011;44652;49.040;12.126;2022-09-30T16:39:17;4.88;;;2.70;;
58874;SDS011;44652;49.040;12.126;2022-09-30T16:41:45;4.32;;;2.25;;
58874;SDS011;44652;49.040;12.126;2022-09-30T16:44:12;5.57;;;2.88;;
58874;SDS011;44652;49.040;12.126;2022-09-30T16:46:39;5.97;;;3.70;;
58874;SDS011;44652;49.040;12.126;2022-09-30T16:49:12;5.95;;;2.83;;
58874;SDS011;44652;49.040;12.126;2022-09-30T16:51:41;4.25;;;2.35;;
58874;SDS011;44652;49.040;12.126;2022-09-30T16:54:08;4.80;;;2.63;;
58874;SDS011;44652;49.040;12.126;2022-09-30T16:56:36;4.05;;;2.20;;
58874;SDS011;44652;49.040;12.126;2022-09-30T16:59:03;4.28;;;2.50;;
58874;SDS011;44652;49.040;12.126;2022-09-30T17:01:38;4.05;;;2.30;;
58874;SDS011;44652;49.040;12.126;2022-09-30T17:04:05;5.28;;;2.80;;
58874;SDS011;44652;49.040;12.126;2022-09-30T17:06:32;5.90;;;3.15;;
58874;SDS011;44652;49.040;12.126;2022-09-30T17:09:00;5.45;;;3.25;;
58874;SDS011;44652;49.040;12.126;2022-09-30T17:11:28;3.75;;;2.03;;
58874;SDS011;44652;49.040;12.126;2022-09-30T17:14:02;3.70;;;2.10;;
58874;SDS011;44652;49.040;12.126;2022-09-30T17:16:29;5.40;;;2.15;;
58874;SDS011;44652;49.040;12.126;2022-09-30T17:18:57;4.00;;;2.30;;
58874;SDS011;44652;49.040;12.126;2022-09-30T17:21:24;8.98;;;5.18;;
58874;SDS011;44652;49.040;12.126;2022-09-30T17:23:53;7.50;;;5.55;;
58874;SDS011;44652;49.040;12.126;2022-09-30T17:26:20;8.65;;;5.03;;
58874;SDS011;44652;49.040;12.126;2022-09-30T17:28:47;7.15;;;4.82;;
58874;SDS011;44652;49.040;12.126;2022-09-30T17:31:14;8.05;;;5.03;;
58874;SDS011;44652;49.040;12.126;2022-09-30T17:33:41;8.45;;;5.38;;
58874;SDS011;44652;49.040;12.126;2022-09-30T17:36:08;9.50;;;5.68;;
58874;SDS011;44652;49.040;12.126;2022-09-30T17:38:37;6.82;;;4.82;;
58874;SDS011;44652;49.040;12.126;2022-09-30T17:41:04;7.22;;;3.92;;
58874;SDS011;44652;49.040;12.126;2022-09-30T17:43:50;6.07;;;3.85;;
58874;SDS011;44652;49.040;12.126;2022-09-30T17:46:18;5.05;;;2.55;;
58874;SDS011;44652;49.040;12.126;2022-09-30T17:48:47;4.78;;;2.90;;
58874;SDS011;44652;49.040;12.126;2022-09-30T17:53:50;4.53;;;2.90;;
58874;SDS011;44652;49.040;12.126;2022-09-30T17:56:22;7.43;;;3.20;;
58874;SDS011;44652;49.040;12.126;2022-09-30T17:58:49;5.65;;;3.38;;
58874;SDS011;44652;49.040;12.126;2022-09-30T18:01:17;8.25;;;6.30;;
58874;SDS011;44652;49.040;12.126;2022-09-30T18:03:46;8.80;;;6.20;;
58874;SDS011;44652;49.040;12.126;2022-09-30T18:06:12;7.55;;;5.22;;
58874;SDS011;44652;49.040;12.126;2022-09-30T18:08:41;6.85;;;5.50;;
58874;SDS011;44652;49.040;12.126;2022-09-30T18:11:09;8.07;;;5.32;;
58874;SDS011;44652;49.040;12.126;2022-09-30T18:16:06;9.75;;;5.53;;
58874;SDS011;44652;49.040;12.126;2022-09-30T18:18:33;10.30;;;5.88;;
58874;SDS011;44652;49.040;12.126;2022-09-30T18:21:02;9.68;;;7.80;;
58874;SDS011;44652;49.040;12.126;2022-09-30T18:23:28;8.68;;;7.07;;
58874;SDS011;44652;49.040;12.126;2022-09-30T18:28:49;6.97;;;5.18;;
58874;SDS011;44652;49.040;12.126;2022-09-30T18:31:19;7.57;;;5.20;;
58874;SDS011;44652;49.040;12.126;2022-09-30T18:37:50;8.15;;;5.22;;
58874;SDS011;44652;49.040;12.126;2022-09-30T18:46:22;10.00;;;7.43;;
58874;SDS011;44652;49.040;12.126;2022-09-30T18:49:16;9.98;;;6.47;;
58874;SDS011;44652;49.040;12.126;2022-09-30T18:51:45;10.57;;;6.95;;
58874;SDS011;44652;49.040;12.126;2022-09-30T18:54:23;10.57;;;6.72;;
58874;SDS011;44652;49.040;12.126;2022-09-30T18:56:49;8.93;;;6.35;;
58874;SDS011;44652;49.040;12.126;2022-09-30T18:59:16;12.18;;;8.05;;
58874;SDS011;44652;49.040;12.126;2022-09-30T19:01:51;11.65;;;7.75;;
58874;SDS011;44652;49.040;12.126;2022-09-30T19:05:18;10.68;;;8.27;;
58874;SDS011;44652;49.040;12.126;2022-09-30T19:07:48;10.30;;;7.50;;
58874;SDS011;44652;49.040;12.126;2022-09-30T19:10:18;10.02;;;7.07;;
58874;SDS011;44652;49.040;12.126;2022-09-30T19:12:44;10.50;;;7.07;;
58874;SDS011;44652;49.040;12.126;2022-09-30T19:17:41;7.65;;;6.43;;
58874;SDS011;44652;49.040;12.126;2022-09-30T19:20:09;8.95;;;6.47;;
58874;SDS011;44652;49.040;12.126;2022-09-30T19:25:05;9.80;;;7.07;;
58874;SDS011;44652;49.040;12.126;2022-09-30T19:27:33;10.25;;;7.65;;
58874;SDS011;44652;49.040;12.126;2022-09-30T19:30:04;8.80;;;6.25;;
58874;SDS011;44652;49.040;12.126;2022-09-30T19:32:32;8.85;;;6.40;;
58874;SDS011;44652;49.040;12.126;2022-09-30T19:35:25;11.57;;;6.68;;
58874;SDS011;44652;49.040;12.126;2022-09-30T19:38:05;9.88;;;7.40;;
58874;SDS011;44652;49.040;12.126;2022-09-30T19:40:32;10.02;;;6.20;;
58874;SDS011;44652;49.040;12.126;2022-09-30T19:43:03;9.05;;;6.53;;
58874;SDS011;44652;49.040;12.126;2022-09-30T19:45:42;9.43;;;6.60;;
58874;SDS011;44652;49.040;12.126;2022-09-30T19:48:09;10.73;;;7.47;;
58874;SDS011;44652;49.040;12.126;2022-09-30T19:50:35;12.40;;;8.00;;
58874;SDS011;44652;49.040;12.126;2022-09-30T19:53:02;9.80;;;7.00;;
58874;SDS011;44652;49.040;12.126;2022-09-30T19:55:29;11.52;;;7.38;;
58874;SDS011;44652;49.040;12.126;2022-09-30T19:58:04;9.45;;;7.13;;
58874;SDS011;44652;49.040;12.126;2022-09-30T20:00:37;11.38;;;7.35;;
58874;SDS011;44652;49.040;12.126;2022-09-30T20:03:04;8.93;;;6.80;;
58874;SDS011;44652;49.040;12.126;2022-09-30T20:05:30;11.60;;;7.25;;
58874;SDS011;44652;49.040;12.126;2022-09-30T20:07:57;11.80;;;8.20;;
58874;SDS011;44652;49.040;12.126;2022-09-30T20:10:24;11.98;;;7.47;;
58874;SDS011;44652;49.040;12.126;2022-09-30T20:12:51;8.75;;;6.90;;
58874;SDS011;44652;49.040;12.126;2022-09-30T20:15:20;8.82;;;5.97;;
58874;SDS011;44652;49.040;12.126;2022-09-30T20:18:11;11.25;;;6.82;;
58874;SDS011;44652;49.040;12.126;2022-09-30T20:20:57;8.43;;;6.32;;
58874;SDS011;44652;49.040;12.126;2022-09-30T20:23:24;9.15;;;6.05;;
58874;SDS011;44652;49.040;12.126;2022-09-30T20:25:52;10.77;;;6.95;;
58874;SDS011;44652;49.040;12.126;2022-09-30T20:28:19;10.65;;;6.75;;
58874;SDS011;44652;49.040;12.126;2022-09-30T20:30:47;9.93;;;6.82;;
58874;SDS011;44652;49.040;12.126;2022-09-30T20:33:20;8.45;;;6.60;;
58874;SDS011;44652;49.040;12.126;2022-09-30T20:35:49;10.25;;;7.57;;
58874;SDS011;44652;49.040;12.126;2022-09-30T20:38:17;12.20;;;7.72;;
58874;SDS011;44652;49.040;12.126;2022-09-30T20:40:53;13.73;;;8.50;;
58874;SDS011;44652;49.040;12.126;2022-09-30T20:43:21;12.10;;;8.85;;
58874;SDS011;44652;49.040;12.126;2022-09-30T20:45:52;12.77;;;8.13;;
58874;SDS011;44652;49.040;12.126;2022-09-30T20:48:20;11.00;;;8.95;;
58874;SDS011;44652;49.040;12.126;2022-09-30T20:54:27;12.10;;;8.20;;
58874;SDS011;44652;49.040;12.126;2022-09-30T21:00:28;14.45;;;7.88;;
58874;SDS011;44652;49.040;12.126;2022-09-30T21:02:56;11.15;;;7.90;;
58874;SDS011;44652;49.040;12.126;2022-09-30T21:05:25;12.43;;;7.78;;
58874;SDS011;44652;49.040;12.126;2022-09-30T21:08:15;12.75;;;8.75;;
58874;SDS011;44652;49.040;12.126;2022-09-30T21:10:49;13.07;;;8.98;;
58874;SDS011;44652;49.040;12.126;2022-09-30T21:13:16;12.70;;;9.23;;
58874;SDS011;44652;49.040;12.126;2022-09-30T21:15:43;17.38;;;8.57;;
58874;SDS011;44652;49.040;12.126;2022-09-30T21:18:10;12.77;;;8.57;;
58874;SDS011;44652;49.040;12.126;2022-09-30T21:20:37;13.85;;;8.82;;
58874;SDS011;44652;49.040;12.126;2022-09-30T21:23:04;11.02;;;8.63;;
58874;SDS011;44652;49.040;12.126;2022-09-30T21:25:31;13.32;;;8.65;;
58874;SDS011;44652;49.040;12.126;2022-09-30T21:27:58;11.75;;;8.52;;
58874;SDS011;44652;49.040;12.126;2022-09-30T21:49:54;11.50;;;8.20;;
